Adair, IL

9:36 AM CST on March 03, 2015 (GMT -0600)
ARS W9PFD | Change Station
CLOSE
Current Station
Personal Weather Station
Location: Adair, IL
Elevation: 650 ft
Nearby Weather Stations
Active Advisory: Special Statement Active Notice: Local Storm Report

Elev 650 ft 40.42 °N, 90.46 °W | Updated 1 minute ago

Overcast
Overcast
32.7 °F
Feels Like 26 °F
N
8.0
Wind Variable Wind from SSW
Gusts 9.0 mph

Today
High -- | Low -- °F
--% Chance of Precip.
Yesterday
High -- | Low -- °F
Precip. -- in
6:32 AM 5:55 PM
Waxing Gibbous, 96% visible
Pressure 29.76 in
Visibility -9999.0 miles
Clouds Overcast 300 ft
Windchill 26 °F
Dew Point 31 °F
Humidity 95%
Rainfall 0.00 in
Snow Depth Not available.
UV 1 out of 12
Pollen .50 out of 12
Air Quality Not available.
Flu Activity Not available.
METAR KMQB 031515Z AUTO 18010KT OVC003 00/M01 A2976 RMK AO2 T10051006 PWINO

More Conditions Fewer Conditions

Pressure 29.76 in
Visibility -9999.0 miles
Clouds Overcast 300 ft
Windchill 26 °F
Dew Point 31 °F
Humidity 95%
Rainfall 0.00 in
Snow Depth Not available.
UV 1 out of 12
Pollen .50 out of 12
Air Quality Not available.
Flu Activity Not available.
METAR KMQB 031515Z AUTO 18010KT OVC003 00/M01 A2976 RMK AO2 T10051006 PWINO

More Conditions Fewer Conditions

10-Day Weather Forecast

Almanac

Astronomy

Mar. 03, 2015 Rise Set
Actual Time
Civil Twilight
Nautical Twilight
Astronomical Twilight
Moon
Length of Visible Light
Length of Day
Tomorrow will be .
, % of the Moon is Illuminated

Today's Extremes

State Highs State Lows

Community

WunderPhotos

Upload Photos

1,802,147 photos uploaded!

WunderBlogs® & News

Nearby

Air Quality

  Air Quality AQ Index Pollutant
Not available.

Snow Depth

Station Depth Elevation

Earthquake Activity

City Distance Mag. Time & Date
Minimum magnitude displayed is 2.5.

Coastal Water Temperatures

Place Temperature

Nearby Weather Stations

Special Statement
Statement as of 9:12 AM CST on March 03, 2015

... Widespread mixed precipitation has ended...

The Winter Weather Advisory for the area has expired.

At 9 am CST... radar and observations indicated drizzle with some
patchy freezing drizzle occurring across the area. Road
information indicates that pavement temperatures have risen above
freezing across the area.

Motorists should continue to exercise caution as some slick spots
may still be possible on less traveled roads.